sensor_id;sensor_type;location;lat;lon;timestamp;P1;durP1;ratioP1;P2;durP2;ratioP2
66874;SDS011;53784;52.630;4.896;2023-06-22T00:02:04;46.13;;;23.05;;
66874;SDS011;53784;52.630;4.896;2023-06-22T00:04:29;43.25;;;21.80;;
66874;SDS011;53784;52.630;4.896;2023-06-22T00:06:54;36.85;;;20.80;;
66874;SDS011;53784;52.630;4.896;2023-06-22T00:09:19;38.90;;;21.05;;
66874;SDS011;53784;52.630;4.896;2023-06-22T00:11:45;39.35;;;20.77;;
66874;SDS011;53784;52.630;4.896;2023-06-22T00:14:10;35.47;;;19.90;;
66874;SDS011;53784;52.630;4.896;2023-06-22T00:16:35;33.38;;;18.75;;
66874;SDS011;53784;52.630;4.896;2023-06-22T00:19:01;34.97;;;19.30;;
66874;SDS011;53784;52.630;4.896;2023-06-22T00:21:27;34.10;;;19.50;;
66874;SDS011;53784;52.630;4.896;2023-06-22T00:23:53;39.35;;;21.52;;
66874;SDS011;53784;52.630;4.896;2023-06-22T00:26:18;37.13;;;21.13;;
66874;SDS011;53784;52.630;4.896;2023-06-22T00:28:44;38.80;;;21.10;;
66874;SDS011;53784;52.630;4.896;2023-06-22T00:31:09;41.50;;;22.50;;
66874;SDS011;53784;52.630;4.896;2023-06-22T00:33:35;39.35;;;21.17;;
66874;SDS011;53784;52.630;4.896;2023-06-22T00:36:00;38.38;;;20.42;;
66874;SDS011;53784;52.630;4.896;2023-06-22T00:38:27;34.50;;;19.27;;
66874;SDS011;53784;52.630;4.896;2023-06-22T00:40:53;29.10;;;16.77;;
66874;SDS011;53784;52.630;4.896;2023-06-22T00:43:18;24.63;;;14.95;;
66874;SDS011;53784;52.630;4.896;2023-06-22T00:45:44;23.70;;;13.02;;
66874;SDS011;53784;52.630;4.896;2023-06-22T00:48:09;23.17;;;14.15;;
66874;SDS011;53784;52.630;4.896;2023-06-22T00:50:35;28.27;;;15.30;;
66874;SDS011;53784;52.630;4.896;2023-06-22T00:53:02;29.77;;;16.75;;
66874;SDS011;53784;52.630;4.896;2023-06-22T00:55:33;24.23;;;14.60;;
66874;SDS011;53784;52.630;4.896;2023-06-22T00:58:02;25.77;;;15.40;;
66874;SDS011;53784;52.630;4.896;2023-06-22T01:00:30;39.15;;;20.25;;
66874;SDS011;53784;52.630;4.896;2023-06-22T01:02:57;31.25;;;17.15;;
66874;SDS011;53784;52.630;4.896;2023-06-22T01:05:22;33.90;;;18.63;;
66874;SDS011;53784;52.630;4.896;2023-06-22T01:10:42;32.17;;;17.88;;
66874;SDS011;53784;52.630;4.896;2023-06-22T01:18:36;24.77;;;14.35;;
66874;SDS011;53784;52.630;4.896;2023-06-22T01:21:02;21.55;;;13.30;;
66874;SDS011;53784;52.630;4.896;2023-06-22T01:23:37;23.02;;;14.15;;
66874;SDS011;53784;52.630;4.896;2023-06-22T01:29:05;28.02;;;15.63;;
66874;SDS011;53784;52.630;4.896;2023-06-22T01:31:32;30.23;;;16.60;;
66874;SDS011;53784;52.630;4.896;2023-06-22T01:34:00;31.23;;;17.90;;
66874;SDS011;53784;52.630;4.896;2023-06-22T01:36:28;27.35;;;16.60;;
66874;SDS011;53784;52.630;4.896;2023-06-22T01:38:54;28.13;;;16.55;;
66874;SDS011;53784;52.630;4.896;2023-06-22T01:41:20;31.20;;;18.00;;
66874;SDS011;53784;52.630;4.896;2023-06-22T01:43:46;32.78;;;19.13;;
66874;SDS011;53784;52.630;4.896;2023-06-22T01:46:12;32.35;;;19.70;;
66874;SDS011;53784;52.630;4.896;2023-06-22T01:48:37;31.95;;;20.48;;
66874;SDS011;53784;52.630;4.896;2023-06-22T01:51:04;31.67;;;19.90;;
66874;SDS011;53784;52.630;4.896;2023-06-22T01:53:29;31.73;;;20.15;;
66874;SDS011;53784;52.630;4.896;2023-06-22T01:55:54;36.58;;;20.85;;
66874;SDS011;53784;52.630;4.896;2023-06-22T01:58:21;28.88;;;18.80;;
66874;SDS011;53784;52.630;4.896;2023-06-22T02:00:50;31.83;;;20.67;;
66874;SDS011;53784;52.630;4.896;2023-06-22T02:03:19;33.30;;;20.45;;
66874;SDS011;53784;52.630;4.896;2023-06-22T02:06:08;31.35;;;20.13;;
66874;SDS011;53784;52.630;4.896;2023-06-22T02:08:38;32.55;;;20.40;;
66874;SDS011;53784;52.630;4.896;2023-06-22T02:11:06;47.85;;;21.23;;
66874;SDS011;53784;52.630;4.896;2023-06-22T02:13:33;34.92;;;20.30;;
66874;SDS011;53784;52.630;4.896;2023-06-22T02:15:59;31.58;;;20.08;;
66874;SDS011;53784;52.630;4.896;2023-06-22T02:18:25;33.40;;;21.13;;
66874;SDS011;53784;52.630;4.896;2023-06-22T02:20:50;33.40;;;20.45;;
66874;SDS011;53784;52.630;4.896;2023-06-22T02:23:16;36.90;;;21.63;;
66874;SDS011;53784;52.630;4.896;2023-06-22T02:25:41;33.60;;;21.10;;
66874;SDS011;53784;52.630;4.896;2023-06-22T02:28:09;35.97;;;21.50;;
66874;SDS011;53784;52.630;4.896;2023-06-22T02:30:34;39.40;;;23.02;;
66874;SDS011;53784;52.630;4.896;2023-06-22T02:32:59;36.53;;;21.67;;
66874;SDS011;53784;52.630;4.896;2023-06-22T02:35:28;38.30;;;23.10;;
66874;SDS011;53784;52.630;4.896;2023-06-22T02:38:00;40.05;;;22.50;;
66874;SDS011;53784;52.630;4.896;2023-06-22T02:40:26;36.25;;;22.50;;
66874;SDS011;53784;52.630;4.896;2023-06-22T02:42:51;34.78;;;22.45;;
66874;SDS011;53784;52.630;4.896;2023-06-22T02:45:17;41.35;;;23.55;;
66874;SDS011;53784;52.630;4.896;2023-06-22T02:47:42;37.10;;;23.90;;
66874;SDS011;53784;52.630;4.896;2023-06-22T02:50:07;40.67;;;24.85;;
66874;SDS011;53784;52.630;4.896;2023-06-22T02:52:33;40.15;;;24.55;;
66874;SDS011;53784;52.630;4.896;2023-06-22T02:54:58;43.10;;;25.60;;
66874;SDS011;53784;52.630;4.896;2023-06-22T02:57:24;44.95;;;26.55;;
66874;SDS011;53784;52.630;4.896;2023-06-22T02:59:49;44.45;;;26.63;;
66874;SDS011;53784;52.630;4.896;2023-06-22T03:02:14;39.35;;;24.60;;
66874;SDS011;53784;52.630;4.896;2023-06-22T03:04:40;37.17;;;22.98;;
66874;SDS011;53784;52.630;4.896;2023-06-22T03:07:05;45.60;;;26.52;;
66874;SDS011;53784;52.630;4.896;2023-06-22T03:09:30;42.78;;;25.88;;
66874;SDS011;53784;52.630;4.896;2023-06-22T03:11:56;48.20;;;28.15;;
66874;SDS011;53784;52.630;4.896;2023-06-22T03:14:22;48.03;;;27.65;;
66874;SDS011;53784;52.630;4.896;2023-06-22T03:16:47;45.97;;;27.15;;
66874;SDS011;53784;52.630;4.896;2023-06-22T03:19:12;45.13;;;26.35;;
66874;SDS011;53784;52.630;4.896;2023-06-22T03:21:38;47.70;;;27.08;;
66874;SDS011;53784;52.630;4.896;2023-06-22T03:24:05;44.72;;;26.00;;
66874;SDS011;53784;52.630;4.896;2023-06-22T03:26:30;43.08;;;25.85;;
66874;SDS011;53784;52.630;4.896;2023-06-22T03:28:56;44.25;;;26.48;;
66874;SDS011;53784;52.630;4.896;2023-06-22T03:31:21;48.42;;;26.27;;
66874;SDS011;53784;52.630;4.896;2023-06-22T03:33:47;45.45;;;26.75;;
66874;SDS011;53784;52.630;4.896;2023-06-22T03:36:14;41.88;;;25.25;;
66874;SDS011;53784;52.630;4.896;2023-06-22T03:38:43;43.42;;;25.73;;
66874;SDS011;53784;52.630;4.896;2023-06-22T03:41:08;43.78;;;25.73;;
66874;SDS011;53784;52.630;4.896;2023-06-22T03:43:33;42.13;;;25.52;;
66874;SDS011;53784;52.630;4.896;2023-06-22T03:45:59;42.97;;;25.10;;
66874;SDS011;53784;52.630;4.896;2023-06-22T03:48:24;41.92;;;24.52;;
66874;SDS011;53784;52.630;4.896;2023-06-22T03:50:49;50.25;;;27.02;;
66874;SDS011;53784;52.630;4.896;2023-06-22T03:53:15;42.53;;;25.70;;
66874;SDS011;53784;52.630;4.896;2023-06-22T03:55:47;42.70;;;25.33;;
66874;SDS011;53784;52.630;4.896;2023-06-22T03:58:13;45.50;;;25.52;;
66874;SDS011;53784;52.630;4.896;2023-06-22T04:00:39;41.13;;;23.88;;
66874;SDS011;53784;52.630;4.896;2023-06-22T04:03:04;42.10;;;25.25;;
66874;SDS011;53784;52.630;4.896;2023-06-22T04:05:31;41.63;;;24.67;;
66874;SDS011;53784;52.630;4.896;2023-06-22T04:07:57;39.15;;;23.73;;
66874;SDS011;53784;52.630;4.896;2023-06-22T04:10:22;39.63;;;23.38;;
66874;SDS011;53784;52.630;4.896;2023-06-22T04:12:47;40.70;;;22.83;;
66874;SDS011;53784;52.630;4.896;2023-06-22T04:15:13;39.08;;;23.25;;
66874;SDS011;53784;52.630;4.896;2023-06-22T04:17:38;38.63;;;22.38;;
66874;SDS011;53784;52.630;4.896;2023-06-22T04:20:04;37.55;;;21.30;;
66874;SDS011;53784;52.630;4.896;2023-06-22T04:22:30;36.40;;;21.40;;
66874;SDS011;53784;52.630;4.896;2023-06-22T04:24:55;36.80;;;22.35;;
66874;SDS011;53784;52.630;4.896;2023-06-22T04:27:20;37.88;;;21.30;;
66874;SDS011;53784;52.630;4.896;2023-06-22T04:29:48;35.38;;;20.33;;
66874;SDS011;53784;52.630;4.896;2023-06-22T04:32:14;36.78;;;21.15;;
66874;SDS011;53784;52.630;4.896;2023-06-22T04:34:40;33.13;;;20.35;;
66874;SDS011;53784;52.630;4.896;2023-06-22T04:37:05;33.80;;;20.60;;
66874;SDS011;53784;52.630;4.896;2023-06-22T04:39:31;31.90;;;20.85;;
66874;SDS011;53784;52.630;4.896;2023-06-22T04:41:56;31.88;;;20.15;;
66874;SDS011;53784;52.630;4.896;2023-06-22T04:44:25;33.47;;;21.05;;
66874;SDS011;53784;52.630;4.896;2023-06-22T04:46:54;32.65;;;19.40;;
66874;SDS011;53784;52.630;4.896;2023-06-22T04:49:25;30.35;;;18.55;;
66874;SDS011;53784;52.630;4.896;2023-06-22T04:51:58;29.30;;;18.10;;
66874;SDS011;53784;52.630;4.896;2023-06-22T04:54:24;28.83;;;17.67;;
66874;SDS011;53784;52.630;4.896;2023-06-22T04:56:49;25.95;;;18.05;;
66874;SDS011;53784;52.630;4.896;2023-06-22T04:59:24;30.55;;;18.88;;
66874;SDS011;53784;52.630;4.896;2023-06-22T05:01:53;28.08;;;19.02;;
66874;SDS011;53784;52.630;4.896;2023-06-22T05:04:25;25.90;;;17.48;;
66874;SDS011;53784;52.630;4.896;2023-06-22T05:06:51;25.25;;;17.15;;
66874;SDS011;53784;52.630;4.896;2023-06-22T05:09:16;26.40;;;17.60;;
66874;SDS011;53784;52.630;4.896;2023-06-22T05:11:42;26.08;;;17.67;;
66874;SDS011;53784;52.630;4.896;2023-06-22T05:14:08;25.38;;;17.58;;
66874;SDS011;53784;52.630;4.896;2023-06-22T05:16:33;25.50;;;17.50;;
66874;SDS011;53784;52.630;4.896;2023-06-22T05:18:59;27.38;;;16.80;;
66874;SDS011;53784;52.630;4.896;2023-06-22T05:21:26;25.38;;;16.83;;
66874;SDS011;53784;52.630;4.896;2023-06-22T05:23:52;24.25;;;17.77;;
66874;SDS011;53784;52.630;4.896;2023-06-22T05:26:18;22.67;;;16.80;;
66874;SDS011;53784;52.630;4.896;2023-06-22T05:28:45;25.70;;;16.95;;
66874;SDS011;53784;52.630;4.896;2023-06-22T05:31:11;22.80;;;16.80;;
66874;SDS011;53784;52.630;4.896;2023-06-22T05:33:40;25.17;;;17.10;;
66874;SDS011;53784;52.630;4.896;2023-06-22T05:36:06;25.80;;;17.67;;
66874;SDS011;53784;52.630;4.896;2023-06-22T05:38:31;25.17;;;17.02;;
66874;SDS011;53784;52.630;4.896;2023-06-22T05:40:57;25.52;;;17.15;;
66874;SDS011;53784;52.630;4.896;2023-06-22T05:43:22;24.58;;;17.02;;
66874;SDS011;53784;52.630;4.896;2023-06-22T05:45:48;24.13;;;16.60;;
66874;SDS011;53784;52.630;4.896;2023-06-22T05:48:13;23.73;;;17.17;;
66874;SDS011;53784;52.630;4.896;2023-06-22T05:50:38;25.00;;;17.02;;
66874;SDS011;53784;52.630;4.896;2023-06-22T05:53:04;24.27;;;18.25;;
66874;SDS011;53784;52.630;4.896;2023-06-22T05:55:29;25.48;;;17.60;;
66874;SDS011;53784;52.630;4.896;2023-06-22T05:57:54;23.20;;;17.42;;
66874;SDS011;53784;52.630;4.896;2023-06-22T06:00:20;22.25;;;16.73;;
66874;SDS011;53784;52.630;4.896;2023-06-22T06:02:45;23.00;;;17.58;;
66874;SDS011;53784;52.630;4.896;2023-06-22T06:05:11;23.60;;;17.30;;
66874;SDS011;53784;52.630;4.896;2023-06-22T06:07:38;25.50;;;17.98;;
66874;SDS011;53784;52.630;4.896;2023-06-22T06:10:04;28.92;;;18.02;;
66874;SDS011;53784;52.630;4.896;2023-06-22T06:12:31;24.52;;;17.85;;
66874;SDS011;53784;52.630;4.896;2023-06-22T06:14:56;22.98;;;17.77;;
66874;SDS011;53784;52.630;4.896;2023-06-22T06:17:21;22.37;;;16.40;;
66874;SDS011;53784;52.630;4.896;2023-06-22T06:19:47;24.23;;;16.90;;
66874;SDS011;53784;52.630;4.896;2023-06-22T06:22:12;24.27;;;18.27;;
66874;SDS011;53784;52.630;4.896;2023-06-22T06:24:37;23.77;;;17.83;;
66874;SDS011;53784;52.630;4.896;2023-06-22T06:27:03;21.52;;;17.05;;
66874;SDS011;53784;52.630;4.896;2023-06-22T06:29:29;21.23;;;17.35;;
66874;SDS011;53784;52.630;4.896;2023-06-22T06:31:55;23.60;;;17.67;;
66874;SDS011;53784;52.630;4.896;2023-06-22T06:34:21;23.52;;;17.25;;
66874;SDS011;53784;52.630;4.896;2023-06-22T06:36:46;24.50;;;16.98;;
66874;SDS011;53784;52.630;4.896;2023-06-22T06:39:11;24.63;;;17.33;;
66874;SDS011;53784;52.630;4.896;2023-06-22T06:41:37;23.38;;;16.77;;
66874;SDS011;53784;52.630;4.896;2023-06-22T06:44:02;21.05;;;15.32;;
66874;SDS011;53784;52.630;4.896;2023-06-22T06:46:27;21.58;;;16.02;;
66874;SDS011;53784;52.630;4.896;2023-06-22T06:48:53;19.57;;;15.53;;
66874;SDS011;53784;52.630;4.896;2023-06-22T06:51:18;21.03;;;15.67;;
66874;SDS011;53784;52.630;4.896;2023-06-22T06:53:43;19.47;;;15.40;;
66874;SDS011;53784;52.630;4.896;2023-06-22T06:56:09;20.17;;;15.00;;
66874;SDS011;53784;52.630;4.896;2023-06-22T06:58:35;19.10;;;14.77;;
66874;SDS011;53784;52.630;4.896;2023-06-22T07:01:01;18.77;;;14.65;;
66874;SDS011;53784;52.630;4.896;2023-06-22T07:03:27;18.05;;;13.90;;
66874;SDS011;53784;52.630;4.896;2023-06-22T07:05:52;19.58;;;14.85;;
66874;SDS011;53784;52.630;4.896;2023-06-22T07:08:18;17.33;;;13.70;;
66874;SDS011;53784;52.630;4.896;2023-06-22T07:10:43;17.40;;;12.85;;
66874;SDS011;53784;52.630;4.896;2023-06-22T07:13:08;15.00;;;12.50;;
66874;SDS011;53784;52.630;4.896;2023-06-22T07:15:34;15.90;;;12.37;;
66874;SDS011;53784;52.630;4.896;2023-06-22T07:17:59;16.40;;;12.20;;
66874;SDS011;53784;52.630;4.896;2023-06-22T07:20:24;16.33;;;12.35;;
66874;SDS011;53784;52.630;4.896;2023-06-22T07:22:51;15.80;;;11.40;;
66874;SDS011;53784;52.630;4.896;2023-06-22T07:25:16;16.08;;;11.20;;
66874;SDS011;53784;52.630;4.896;2023-06-22T07:27:46;14.88;;;11.07;;
66874;SDS011;53784;52.630;4.896;2023-06-22T07:30:22;15.73;;;11.20;;
66874;SDS011;53784;52.630;4.896;2023-06-22T07:32:47;14.75;;;11.05;;
66874;SDS011;53784;52.630;4.896;2023-06-22T07:35:12;13.50;;;10.73;;
66874;SDS011;53784;52.630;4.896;2023-06-22T07:37:37;16.20;;;11.17;;
66874;SDS011;53784;52.630;4.896;2023-06-22T07:40:03;15.55;;;11.15;;
66874;SDS011;53784;52.630;4.896;2023-06-22T07:42:31;14.95;;;11.05;;
66874;SDS011;53784;52.630;4.896;2023-06-22T07:44:57;16.58;;;12.00;;
66874;SDS011;53784;52.630;4.896;2023-06-22T07:47:23;16.00;;;12.20;;
66874;SDS011;53784;52.630;4.896;2023-06-22T07:49:50;16.10;;;11.88;;
66874;SDS011;53784;52.630;4.896;2023-06-22T07:52:16;15.98;;;12.48;;
66874;SDS011;53784;52.630;4.896;2023-06-22T07:54:41;15.13;;;12.53;;
66874;SDS011;53784;52.630;4.896;2023-06-22T07:57:06;16.80;;;12.00;;
66874;SDS011;53784;52.630;4.896;2023-06-22T07:59:32;15.45;;;12.75;;
66874;SDS011;53784;52.630;4.896;2023-06-22T08:01:57;15.50;;;11.67;;
66874;SDS011;53784;52.630;4.896;2023-06-22T08:04:22;18.38;;;12.25;;
66874;SDS011;53784;52.630;4.896;2023-06-22T08:06:48;16.60;;;11.90;;
66874;SDS011;53784;52.630;4.896;2023-06-22T08:09:14;14.43;;;12.27;;
66874;SDS011;53784;52.630;4.896;2023-06-22T08:11:39;15.38;;;12.75;;
66874;SDS011;53784;52.630;4.896;2023-06-22T08:14:04;15.17;;;11.97;;
66874;SDS011;53784;52.630;4.896;2023-06-22T08:16:30;15.03;;;12.63;;
66874;SDS011;53784;52.630;4.896;2023-06-22T08:18:55;16.97;;;13.47;;
66874;SDS011;53784;52.630;4.896;2023-06-22T08:21:21;16.92;;;12.75;;
66874;SDS011;53784;52.630;4.896;2023-06-22T08:23:47;16.15;;;12.02;;
66874;SDS011;53784;52.630;4.896;2023-06-22T08:26:13;14.80;;;12.60;;
66874;SDS011;53784;52.630;4.896;2023-06-22T08:28:39;14.73;;;12.38;;
66874;SDS011;53784;52.630;4.896;2023-06-22T08:31:04;13.33;;;11.93;;
66874;SDS011;53784;52.630;4.896;2023-06-22T08:33:30;15.00;;;11.20;;
66874;SDS011;53784;52.630;4.896;2023-06-22T08:35:56;15.38;;;12.55;;
66874;SDS011;53784;52.630;4.896;2023-06-22T08:38:21;14.60;;;11.65;;
66874;SDS011;53784;52.630;4.896;2023-06-22T08:40:46;11.50;;;10.17;;
66874;SDS011;53784;52.630;4.896;2023-06-22T08:43:12;13.77;;;10.57;;
66874;SDS011;53784;52.630;4.896;2023-06-22T08:45:37;14.67;;;11.30;;
66874;SDS011;53784;52.630;4.896;2023-06-22T08:48:02;12.10;;;10.63;;
66874;SDS011;53784;52.630;4.896;2023-06-22T08:50:28;12.68;;;9.82;;
66874;SDS011;53784;52.630;4.896;2023-06-22T08:52:53;14.27;;;10.73;;
66874;SDS011;53784;52.630;4.896;2023-06-22T08:55:18;11.90;;;9.80;;
66874;SDS011;53784;52.630;4.896;2023-06-22T08:57:44;11.23;;;9.90;;
66874;SDS011;53784;52.630;4.896;2023-06-22T09:00:09;12.82;;;9.10;;
66874;SDS011;53784;52.630;4.896;2023-06-22T09:02:45;13.50;;;9.70;;
66874;SDS011;53784;52.630;4.896;2023-06-22T09:05:11;10.70;;;8.82;;
66874;SDS011;53784;52.630;4.896;2023-06-22T09:07:37;11.57;;;8.98;;
66874;SDS011;53784;52.630;4.896;2023-06-22T09:10:02;11.17;;;8.90;;
66874;SDS011;53784;52.630;4.896;2023-06-22T09:12:29;13.02;;;9.25;;
66874;SDS011;53784;52.630;4.896;2023-06-22T09:14:55;11.93;;;10.00;;
66874;SDS011;53784;52.630;4.896;2023-06-22T09:17:21;11.50;;;9.55;;
66874;SDS011;53784;52.630;4.896;2023-06-22T09:19:47;11.45;;;9.65;;
66874;SDS011;53784;52.630;4.896;2023-06-22T09:22:12;12.25;;;10.10;;
66874;SDS011;53784;52.630;4.896;2023-06-22T09:24:38;11.15;;;9.32;;
66874;SDS011;53784;52.630;4.896;2023-06-22T09:27:03;13.63;;;10.40;;
66874;SDS011;53784;52.630;4.896;2023-06-22T09:29:28;12.02;;;10.60;;
66874;SDS011;53784;52.630;4.896;2023-06-22T09:31:54;12.00;;;10.03;;
66874;SDS011;53784;52.630;4.896;2023-06-22T09:34:19;15.68;;;11.43;;
66874;SDS011;53784;52.630;4.896;2023-06-22T09:36:48;13.60;;;10.77;;
66874;SDS011;53784;52.630;4.896;2023-06-22T09:39:13;12.90;;;10.40;;
66874;SDS011;53784;52.630;4.896;2023-06-22T09:41:39;13.45;;;10.45;;
66874;SDS011;53784;52.630;4.896;2023-06-22T09:44:04;12.17;;;10.63;;
66874;SDS011;53784;52.630;4.896;2023-06-22T09:46:29;13.07;;;10.00;;
66874;SDS011;53784;52.630;4.896;2023-06-22T09:48:55;12.68;;;10.43;;
66874;SDS011;53784;52.630;4.896;2023-06-22T09:51:20;12.48;;;9.90;;
66874;SDS011;53784;52.630;4.896;2023-06-22T09:53:46;14.30;;;10.10;;
66874;SDS011;53784;52.630;4.896;2023-06-22T09:56:12;12.40;;;9.73;;
66874;SDS011;53784;52.630;4.896;2023-06-22T09:58:40;14.93;;;9.90;;
66874;SDS011;53784;52.630;4.896;2023-06-22T10:01:09;12.27;;;9.27;;
66874;SDS011;53784;52.630;4.896;2023-06-22T10:03:35;12.35;;;10.05;;
66874;SDS011;53784;52.630;4.896;2023-06-22T10:06:00;12.03;;;9.77;;
66874;SDS011;53784;52.630;4.896;2023-06-22T10:08:25;14.80;;;11.18;;
66874;SDS011;53784;52.630;4.896;2023-06-22T10:10:51;13.53;;;10.53;;
66874;SDS011;53784;52.630;4.896;2023-06-22T10:13:16;12.17;;;10.50;;
66874;SDS011;53784;52.630;4.896;2023-06-22T10:15:41;14.67;;;11.17;;
66874;SDS011;53784;52.630;4.896;2023-06-22T10:18:07;11.05;;;9.80;;
66874;SDS011;53784;52.630;4.896;2023-06-22T10:20:32;12.27;;;10.70;;
66874;SDS011;53784;52.630;4.896;2023-06-22T10:22:58;12.52;;;9.52;;
66874;SDS011;53784;52.630;4.896;2023-06-22T10:25:23;15.07;;;10.60;;
66874;SDS011;53784;52.630;4.896;2023-06-22T10:27:49;10.82;;;9.60;;
66874;SDS011;53784;52.630;4.896;2023-06-22T10:30:14;12.85;;;10.40;;
66874;SDS011;53784;52.630;4.896;2023-06-22T10:32:40;13.57;;;10.88;;
66874;SDS011;53784;52.630;4.896;2023-06-22T10:35:06;10.25;;;9.02;;
66874;SDS011;53784;52.630;4.896;2023-06-22T10:37:31;11.80;;;9.95;;
66874;SDS011;53784;52.630;4.896;2023-06-22T10:39:57;12.48;;;9.65;;
66874;SDS011;53784;52.630;4.896;2023-06-22T10:42:22;12.70;;;10.83;;
66874;SDS011;53784;52.630;4.896;2023-06-22T10:44:47;12.35;;;9.93;;
66874;SDS011;53784;52.630;4.896;2023-06-22T10:47:13;10.93;;;9.50;;
66874;SDS011;53784;52.630;4.896;2023-06-22T10:49:38;12.33;;;9.00;;
66874;SDS011;53784;52.630;4.896;2023-06-22T10:52:05;12.10;;;10.07;;
66874;SDS011;53784;52.630;4.896;2023-06-22T10:54:34;12.45;;;10.55;;
66874;SDS011;53784;52.630;4.896;2023-06-22T10:57:00;12.60;;;9.35;;
66874;SDS011;53784;52.630;4.896;2023-06-22T10:59:25;11.43;;;9.52;;
66874;SDS011;53784;52.630;4.896;2023-06-22T11:01:51;10.75;;;9.07;;
66874;SDS011;53784;52.630;4.896;2023-06-22T11:04:16;10.10;;;8.05;;
66874;SDS011;53784;52.630;4.896;2023-06-22T11:06:42;12.77;;;9.38;;
66874;SDS011;53784;52.630;4.896;2023-06-22T11:09:08;15.00;;;9.63;;
66874;SDS011;53784;52.630;4.896;2023-06-22T11:11:33;11.83;;;9.17;;
66874;SDS011;53784;52.630;4.896;2023-06-22T11:13:58;10.53;;;9.03;;
66874;SDS011;53784;52.630;4.896;2023-06-22T11:16:24;10.80;;;8.87;;
66874;SDS011;53784;52.630;4.896;2023-06-22T11:18:49;9.93;;;8.40;;
66874;SDS011;53784;52.630;4.896;2023-06-22T11:21:14;10.43;;;8.20;;
66874;SDS011;53784;52.630;4.896;2023-06-22T11:23:41;9.87;;;8.20;;
66874;SDS011;53784;52.630;4.896;2023-06-22T11:26:06;10.18;;;8.20;;
66874;SDS011;53784;52.630;4.896;2023-06-22T11:28:32;10.63;;;7.43;;
66874;SDS011;53784;52.630;4.896;2023-06-22T11:30:57;13.13;;;9.30;;
66874;SDS011;53784;52.630;4.896;2023-06-22T11:33:23;10.33;;;7.60;;
66874;SDS011;53784;52.630;4.896;2023-06-22T11:35:48;11.60;;;8.50;;
66874;SDS011;53784;52.630;4.896;2023-06-22T11:38:13;11.70;;;8.37;;
66874;SDS011;53784;52.630;4.896;2023-06-22T11:40:38;10.40;;;8.68;;
66874;SDS011;53784;52.630;4.896;2023-06-22T11:43:04;12.57;;;8.37;;
66874;SDS011;53784;52.630;4.896;2023-06-22T11:45:29;13.10;;;8.90;;
66874;SDS011;53784;52.630;4.896;2023-06-22T11:47:54;12.27;;;9.17;;
66874;SDS011;53784;52.630;4.896;2023-06-22T11:50:20;13.30;;;10.60;;
66874;SDS011;53784;52.630;4.896;2023-06-22T11:52:45;13.60;;;9.43;;
66874;SDS011;53784;52.630;4.896;2023-06-22T11:55:10;16.90;;;10.30;;
66874;SDS011;53784;52.630;4.896;2023-06-22T11:57:36;13.13;;;10.23;;
66874;SDS011;53784;52.630;4.896;2023-06-22T12:00:02;14.90;;;9.90;;
66874;SDS011;53784;52.630;4.896;2023-06-22T12:02:31;13.07;;;9.07;;
66874;SDS011;53784;52.630;4.896;2023-06-22T12:04:57;13.98;;;10.95;;
66874;SDS011;53784;52.630;4.896;2023-06-22T12:07:23;14.13;;;10.15;;
66874;SDS011;53784;52.630;4.896;2023-06-22T12:09:48;11.77;;;8.73;;
66874;SDS011;53784;52.630;4.896;2023-06-22T12:12:13;10.75;;;8.88;;
66874;SDS011;53784;52.630;4.896;2023-06-22T12:14:39;11.53;;;9.07;;
66874;SDS011;53784;52.630;4.896;2023-06-22T12:17:04;12.53;;;9.17;;
66874;SDS011;53784;52.630;4.896;2023-06-22T12:19:29;13.35;;;9.35;;
66874;SDS011;53784;52.630;4.896;2023-06-22T12:21:55;10.25;;;8.38;;
66874;SDS011;53784;52.630;4.896;2023-06-22T12:24:20;11.55;;;8.40;;
66874;SDS011;53784;52.630;4.896;2023-06-22T12:26:45;11.40;;;8.07;;
66874;SDS011;53784;52.630;4.896;2023-06-22T12:29:11;11.80;;;7.15;;
66874;SDS011;53784;52.630;4.896;2023-06-22T12:31:36;8.70;;;6.70;;
66874;SDS011;53784;52.630;4.896;2023-06-22T12:34:03;8.73;;;6.30;;
66874;SDS011;53784;52.630;4.896;2023-06-22T12:36:29;9.05;;;6.03;;
66874;SDS011;53784;52.630;4.896;2023-06-22T12:38:54;11.50;;;6.70;;
66874;SDS011;53784;52.630;4.896;2023-06-22T12:41:20;10.02;;;6.18;;
66874;SDS011;53784;52.630;4.896;2023-06-22T12:43:46;8.35;;;5.50;;
66874;SDS011;53784;52.630;4.896;2023-06-22T12:46:11;8.82;;;5.20;;
66874;SDS011;53784;52.630;4.896;2023-06-22T12:48:36;9.85;;;6.15;;
66874;SDS011;53784;52.630;4.896;2023-06-22T12:51:06;10.13;;;5.30;;
66874;SDS011;53784;52.630;4.896;2023-06-22T12:53:32;10.05;;;5.05;;
66874;SDS011;53784;52.630;4.896;2023-06-22T12:55:57;11.33;;;5.13;;
66874;SDS011;53784;52.630;4.896;2023-06-22T12:58:23;9.25;;;5.45;;
66874;SDS011;53784;52.630;4.896;2023-06-22T13:00:48;9.10;;;6.03;;
66874;SDS011;53784;52.630;4.896;2023-06-22T13:03:14;9.05;;;6.20;;
66874;SDS011;53784;52.630;4.896;2023-06-22T13:05:39;8.10;;;5.75;;
66874;SDS011;53784;52.630;4.896;2023-06-22T13:08:04;8.53;;;5.57;;
66874;SDS011;53784;52.630;4.896;2023-06-22T13:10:30;10.90;;;5.68;;
66874;SDS011;53784;52.630;4.896;2023-06-22T13:12:55;9.32;;;5.70;;
66874;SDS011;53784;52.630;4.896;2023-06-22T13:15:25;8.30;;;5.15;;
66874;SDS011;53784;52.630;4.896;2023-06-22T13:17:51;8.77;;;5.65;;
66874;SDS011;53784;52.630;4.896;2023-06-22T13:20:17;8.75;;;5.30;;
66874;SDS011;53784;52.630;4.896;2023-06-22T13:22:42;8.65;;;5.47;;
66874;SDS011;53784;52.630;4.896;2023-06-22T13:25:08;10.85;;;5.40;;
66874;SDS011;53784;52.630;4.896;2023-06-22T13:27:37;8.35;;;5.30;;
66874;SDS011;53784;52.630;4.896;2023-06-22T13:30:03;9.00;;;5.30;;
66874;SDS011;53784;52.630;4.896;2023-06-22T13:32:29;8.50;;;4.80;;
66874;SDS011;53784;52.630;4.896;2023-06-22T13:34:54;8.15;;;5.05;;
66874;SDS011;53784;52.630;4.896;2023-06-22T13:37:19;7.40;;;5.00;;
66874;SDS011;53784;52.630;4.896;2023-06-22T13:39:45;8.77;;;5.13;;
66874;SDS011;53784;52.630;4.896;2023-06-22T13:42:10;7.50;;;5.35;;
66874;SDS011;53784;52.630;4.896;2023-06-22T13:44:35;8.02;;;4.75;;
66874;SDS011;53784;52.630;4.896;2023-06-22T13:47:01;7.72;;;4.93;;
66874;SDS011;53784;52.630;4.896;2023-06-22T13:49:26;8.35;;;4.90;;
66874;SDS011;53784;52.630;4.896;2023-06-22T13:51:51;7.82;;;4.75;;
66874;SDS011;53784;52.630;4.896;2023-06-22T13:54:17;7.82;;;5.18;;
66874;SDS011;53784;52.630;4.896;2023-06-22T13:56:42;8.50;;;5.28;;
66874;SDS011;53784;52.630;4.896;2023-06-22T13:59:07;8.98;;;4.75;;
66874;SDS011;53784;52.630;4.896;2023-06-22T14:01:34;7.78;;;4.57;;
66874;SDS011;53784;52.630;4.896;2023-06-22T14:04:00;8.02;;;4.70;;
66874;SDS011;53784;52.630;4.896;2023-06-22T14:06:27;6.47;;;4.10;;
66874;SDS011;53784;52.630;4.896;2023-06-22T14:08:52;8.05;;;4.47;;
66874;SDS011;53784;52.630;4.896;2023-06-22T14:11:18;7.15;;;4.45;;
66874;SDS011;53784;52.630;4.896;2023-06-22T14:13:43;7.10;;;4.03;;
66874;SDS011;53784;52.630;4.896;2023-06-22T14:16:08;8.23;;;4.43;;
66874;SDS011;53784;52.630;4.896;2023-06-22T14:18:33;8.13;;;4.15;;
66874;SDS011;53784;52.630;4.896;2023-06-22T14:20:59;8.82;;;4.18;;
66874;SDS011;53784;52.630;4.896;2023-06-22T14:23:24;8.38;;;4.57;;
66874;SDS011;53784;52.630;4.896;2023-06-22T14:25:50;8.93;;;4.10;;
66874;SDS011;53784;52.630;4.896;2023-06-22T14:28:15;6.80;;;3.55;;
66874;SDS011;53784;52.630;4.896;2023-06-22T14:30:41;7.43;;;3.38;;
66874;SDS011;53784;52.630;4.896;2023-06-22T14:33:06;6.72;;;3.50;;